createdAt,value
2017-07-24T00:00:45.165Z,12.0
2017-07-24T00:01:47.014Z,11.9
2017-07-24T00:02:48.693Z,11.8
2017-07-24T00:03:50.354Z,11.9
2017-07-24T00:04:52.013Z,11.9
2017-07-24T00:05:53.667Z,11.9
2017-07-24T00:06:55.330Z,11.9
2017-07-24T00:07:56.987Z,11.9
2017-07-24T00:08:58.652Z,11.8
2017-07-24T00:10:00.310Z,11.8
2017-07-24T00:11:01.971Z,11.8
2017-07-24T00:12:03.632Z,11.8
2017-07-24T00:13:05.445Z,11.7
2017-07-24T00:14:07.111Z,11.8
2017-07-24T00:15:08.765Z,11.8
2017-07-24T00:16:10.424Z,11.8
2017-07-24T00:17:12.076Z,12.0
2017-07-24T00:18:13.730Z,12.0
2017-07-24T00:19:15.396Z,11.9
2017-07-24T00:20:17.063Z,12.0
2017-07-24T00:21:18.729Z,12.0
2017-07-24T00:22:20.386Z,12.1
2017-07-24T00:23:22.041Z,12.1
2017-07-24T00:24:23.696Z,12.1
2017-07-24T00:25:25.355Z,12.1
2017-07-24T00:26:27.016Z,12.1
2017-07-24T00:27:28.677Z,12.2
2017-07-24T00:28:30.343Z,12.1
2017-07-24T00:29:32.002Z,12.1
2017-07-24T00:30:33.661Z,12.2
2017-07-24T00:31:35.316Z,12.1
2017-07-24T00:32:36.976Z,12.1
2017-07-24T00:33:38.677Z,12.2
2017-07-24T00:34:40.331Z,12.1
2017-07-24T00:35:42.004Z,12.0
2017-07-24T00:36:43.652Z,12.1
2017-07-24T00:37:45.321Z,12.1
2017-07-24T00:38:46.976Z,12.0
2017-07-24T00:39:48.634Z,12.1
2017-07-24T00:40:50.293Z,12.0
2017-07-24T00:41:51.949Z,12.1
2017-07-24T00:42:53.610Z,12.1
2017-07-24T00:43:55.266Z,12.1
2017-07-24T00:44:56.964Z,12.1
2017-07-24T00:45:58.630Z,12.1
2017-07-24T00:47:00.282Z,12.1
2017-07-24T00:48:01.938Z,12.1
2017-07-24T00:49:03.599Z,12.0
2017-07-24T00:50:05.260Z,12.0
2017-07-24T00:51:06.922Z,12.1
2017-07-24T00:52:08.592Z,12.1
2017-07-24T00:53:10.242Z,12.1
2017-07-24T00:54:11.902Z,12.1
2017-07-24T00:55:13.551Z,12.2
2017-07-24T00:56:15.215Z,12.1
2017-07-24T00:57:16.873Z,12.2
2017-07-24T00:58:18.543Z,12.1
2017-07-24T00:59:20.200Z,12.1
2017-07-24T01:00:21.860Z,12.2
2017-07-24T01:01:23.519Z,12.1
2017-07-24T01:02:25.179Z,12.1
2017-07-24T01:03:26.831Z,12.2
2017-07-24T01:04:28.493Z,12.1
2017-07-24T01:05:30.152Z,12.2
2017-07-24T01:06:31.999Z,12.2
2017-07-24T01:07:33.652Z,12.2
2017-07-24T01:08:35.325Z,12.1
2017-07-24T01:09:36.983Z,12.1
2017-07-24T01:10:38.650Z,12.2
2017-07-24T01:11:40.314Z,12.1
2017-07-24T01:12:41.991Z,12.1
2017-07-24T01:13:43.652Z,12.1
2017-07-24T01:14:45.314Z,12.1
2017-07-24T01:15:46.978Z,12.1
2017-07-24T01:16:48.635Z,12.1
2017-07-24T01:17:50.303Z,12.1
2017-07-24T01:18:51.958Z,12.1
2017-07-24T01:19:53.625Z,12.1
2017-07-24T01:20:55.287Z,12.0
2017-07-24T01:21:56.952Z,12.1
2017-07-24T01:22:58.617Z,12.0
2017-07-24T01:24:00.261Z,12.1
2017-07-24T01:25:01.949Z,12.0
2017-07-24T01:26:03.603Z,12.1
2017-07-24T01:27:05.260Z,12.0
2017-07-24T01:28:06.920Z,12.0
2017-07-24T01:29:08.580Z,12.0
2017-07-24T01:30:10.289Z,11.9
2017-07-24T01:31:11.956Z,11.9
2017-07-24T01:32:13.616Z,11.8
2017-07-24T01:33:15.277Z,11.8
2017-07-24T01:34:16.930Z,11.8
2017-07-24T01:35:18.595Z,11.8
2017-07-24T01:36:20.256Z,11.9
2017-07-24T01:37:21.920Z,11.9
2017-07-24T01:38:23.581Z,11.9
2017-07-24T01:39:25.245Z,11.9
2017-07-24T01:40:26.907Z,12.0
2017-07-24T01:41:28.588Z,11.9
2017-07-24T01:42:30.235Z,12.0
2017-07-24T01:43:31.894Z,11.9
2017-07-24T01:44:33.555Z,12.0
2017-07-24T01:45:35.520Z,11.9
2017-07-24T01:46:37.166Z,12.0
2017-07-24T01:47:38.827Z,11.9
2017-07-24T01:48:40.488Z,11.9
2017-07-24T01:49:42.139Z,11.9
2017-07-24T01:50:43.801Z,11.9
2017-07-24T01:51:45.467Z,11.9
2017-07-24T01:52:47.121Z,11.9
2017-07-24T01:53:48.779Z,11.9
2017-07-24T01:54:50.463Z,11.8
2017-07-24T01:55:52.129Z,11.9
2017-07-24T01:56:53.889Z,11.8
2017-07-24T01:57:55.544Z,11.9
2017-07-24T01:58:57.207Z,11.9
2017-07-24T01:59:58.859Z,11.8
2017-07-24T02:01:00.525Z,11.9
2017-07-24T02:02:02.189Z,12.0
2017-07-24T02:03:03.872Z,11.9
2017-07-24T02:04:05.519Z,12.0
2017-07-24T02:05:07.213Z,11.9
2017-07-24T02:06:08.871Z,12.1
2017-07-24T02:07:10.535Z,12.1
2017-07-24T02:08:12.193Z,11.9
2017-07-24T02:09:13.851Z,12.0
2017-07-24T02:10:15.532Z,12.0
2017-07-24T02:11:17.195Z,12.0
2017-07-24T02:12:18.860Z,12.0
2017-07-24T02:13:20.521Z,12.1
2017-07-24T02:14:22.180Z,12.1
2017-07-24T02:15:23.849Z,12.1
2017-07-24T02:16:25.510Z,12.0
2017-07-24T02:17:27.175Z,12.0
2017-07-24T02:18:28.826Z,12.1
2017-07-24T02:19:30.479Z,12.1
2017-07-24T02:20:32.143Z,12.1
2017-07-24T02:21:33.810Z,12.1
2017-07-24T02:22:35.468Z,12.1
2017-07-24T02:23:37.150Z,12.1
2017-07-24T02:24:38.808Z,12.1
2017-07-24T02:25:40.476Z,12.1
2017-07-24T02:26:42.138Z,12.0
2017-07-24T02:27:43.795Z,12.1
2017-07-24T02:28:45.449Z,11.9
2017-07-24T02:29:47.118Z,11.9
2017-07-24T02:30:48.781Z,11.9
2017-07-24T02:31:50.452Z,11.9
2017-07-24T02:32:52.109Z,12.0
2017-07-24T02:33:53.763Z,11.9
2017-07-24T02:34:55.410Z,11.9
2017-07-24T02:35:57.116Z,12.0
2017-07-24T02:36:58.775Z,11.9
2017-07-24T02:38:00.432Z,12.0
2017-07-24T02:39:02.101Z,11.9
2017-07-24T02:40:03.763Z,12.0
2017-07-24T02:41:05.426Z,12.0
2017-07-24T02:42:07.081Z,11.9
2017-07-24T02:43:08.748Z,11.9
2017-07-24T02:44:10.408Z,11.9
2017-07-24T02:45:12.072Z,12.0
2017-07-24T02:46:13.727Z,12.0
2017-07-24T02:47:15.395Z,11.9
2017-07-24T02:48:17.045Z,11.9
2017-07-24T02:49:18.712Z,11.9
2017-07-24T02:50:20.450Z,11.8
2017-07-24T02:51:22.124Z,11.8
2017-07-24T02:52:23.779Z,11.8
2017-07-24T02:53:25.447Z,11.9
2017-07-24T02:54:27.104Z,11.7
2017-07-24T02:55:28.767Z,11.8
2017-07-24T02:56:30.426Z,12.0
2017-07-24T02:57:32.084Z,11.9
2017-07-24T02:58:33.748Z,12.0
2017-07-24T02:59:35.412Z,11.8
2017-07-24T03:00:37.073Z,11.8
2017-07-24T03:01:38.742Z,11.8
2017-07-24T03:02:40.404Z,11.8
2017-07-24T03:03:42.047Z,11.8
2017-07-24T03:04:43.703Z,11.8
2017-07-24T03:05:45.369Z,11.7
2017-07-24T03:06:47.057Z,11.8
2017-07-24T03:07:48.697Z,11.9
2017-07-24T03:08:50.352Z,11.9
2017-07-24T03:09:52.007Z,11.8
2017-07-24T03:10:53.668Z,11.8
2017-07-24T03:11:55.331Z,11.9
2017-07-24T03:12:57.005Z,11.9
2017-07-24T03:13:58.667Z,11.7
2017-07-24T03:15:00.331Z,11.8
2017-07-24T03:16:01.991Z,11.8
2017-07-24T03:17:03.643Z,11.8
2017-07-24T03:18:05.297Z,11.8
2017-07-24T03:19:06.969Z,11.7
2017-07-24T03:20:08.619Z,11.8
2017-07-24T03:21:10.273Z,11.8
2017-07-24T03:22:11.938Z,11.8
2017-07-24T03:23:13.600Z,11.8
2017-07-24T03:24:15.252Z,11.8
2017-07-24T03:25:16.908Z,11.8
2017-07-24T03:26:18.568Z,11.8
2017-07-24T03:27:20.229Z,11.9
2017-07-24T03:28:21.894Z,11.9
2017-07-24T03:29:23.562Z,11.9
2017-07-24T03:30:25.214Z,11.8
2017-07-24T03:31:26.875Z,11.9
2017-07-24T03:32:28.534Z,11.9
2017-07-24T03:33:30.198Z,11.8
2017-07-24T03:34:31.858Z,12.0
2017-07-24T03:35:33.520Z,11.9
2017-07-24T03:36:35.179Z,11.9
2017-07-24T03:37:36.841Z,11.8
2017-07-24T03:38:38.498Z,11.8
2017-07-24T03:39:40.158Z,11.9
2017-07-24T03:40:41.816Z,11.9
2017-07-24T03:41:43.497Z,11.9
2017-07-24T03:42:45.173Z,11.9
2017-07-24T03:43:46.826Z,11.9
2017-07-24T03:44:48.487Z,11.8
2017-07-24T03:45:50.146Z,12.0
2017-07-24T03:46:51.801Z,12.0
2017-07-24T03:47:53.461Z,12.0
2017-07-24T03:48:55.134Z,12.0
2017-07-24T03:49:56.795Z,12.1
2017-07-24T03:50:58.467Z,12.0
2017-07-24T03:52:00.136Z,12.0
2017-07-24T03:53:01.800Z,12.1
2017-07-24T03:54:03.460Z,12.1
2017-07-24T03:55:05.125Z,12.1
2017-07-24T03:56:06.787Z,12.1
2017-07-24T03:57:08.448Z,12.1
2017-07-24T03:58:10.111Z,12.0
2017-07-24T03:59:11.774Z,12.0
2017-07-24T04:00:13.432Z,12.0
2017-07-24T04:01:15.121Z,12.0
2017-07-24T04:02:16.759Z,11.9
2017-07-24T04:03:18.424Z,12.0
2017-07-24T04:04:20.094Z,11.9
2017-07-24T04:05:21.764Z,11.9
2017-07-24T04:06:23.427Z,11.9
2017-07-24T04:07:25.093Z,11.9
2017-07-24T04:08:26.756Z,12.1
2017-07-24T04:09:28.451Z,12.0
2017-07-24T04:10:30.094Z,11.9
2017-07-24T04:11:31.758Z,11.9
2017-07-24T04:12:33.423Z,11.8
2017-07-24T04:13:35.084Z,11.9
2017-07-24T04:14:36.748Z,11.9
2017-07-24T04:15:38.434Z,11.9
2017-07-24T04:16:40.096Z,11.9
2017-07-24T04:17:41.761Z,11.9
2017-07-24T04:18:43.433Z,11.9
2017-07-24T04:19:45.109Z,12.0
2017-07-24T04:20:46.771Z,12.0
2017-07-24T04:21:48.431Z,11.9
2017-07-24T04:22:50.098Z,12.0
2017-07-24T04:23:51.763Z,12.0
2017-07-24T04:24:53.430Z,11.9
2017-07-24T04:25:55.093Z,11.9
2017-07-24T04:26:56.758Z,11.9
2017-07-24T04:27:58.422Z,11.9
2017-07-24T04:29:00.090Z,12.0
2017-07-24T04:30:01.761Z,11.9
2017-07-24T04:31:03.422Z,12.0
2017-07-24T04:32:05.088Z,11.9
2017-07-24T04:33:06.746Z,12.0
2017-07-24T04:34:09.347Z,11.9
2017-07-24T04:35:11.013Z,11.9
2017-07-24T04:36:12.668Z,12.0
2017-07-24T04:37:14.330Z,11.9
2017-07-24T04:38:16.003Z,11.9
2017-07-24T04:39:17.671Z,11.9
2017-07-24T04:40:19.336Z,11.9
2017-07-24T04:41:21.000Z,11.9
2017-07-24T04:42:22.663Z,11.9
2017-07-24T04:43:24.355Z,11.9
2017-07-24T04:44:26.027Z,11.9
2017-07-24T04:45:27.688Z,12.0
2017-07-24T04:46:29.355Z,11.9
2017-07-24T04:47:31.013Z,11.9
2017-07-24T04:48:32.770Z,12.0
2017-07-24T04:49:34.435Z,12.0
2017-07-24T04:50:36.100Z,11.9
2017-07-24T04:51:37.770Z,11.9
2017-07-24T04:52:39.439Z,11.9
2017-07-24T04:53:41.325Z,11.9
2017-07-24T04:54:42.995Z,11.8
2017-07-24T04:55:44.662Z,11.9
2017-07-24T04:56:46.345Z,11.9
2017-07-24T04:57:47.994Z,11.9
2017-07-24T04:58:49.669Z,11.9
2017-07-24T04:59:51.329Z,11.9
2017-07-24T05:00:52.999Z,11.9
2017-07-24T05:01:54.672Z,12.0
2017-07-24T05:02:56.330Z,11.8
2017-07-24T05:03:57.996Z,11.9
2017-07-24T05:04:59.657Z,11.9
2017-07-24T05:06:01.332Z,11.9
2017-07-24T05:07:02.997Z,11.9
2017-07-24T05:08:04.661Z,12.0
2017-07-24T05:09:06.329Z,11.9
2017-07-24T05:10:07.990Z,12.0
2017-07-24T05:11:09.657Z,11.9
2017-07-24T05:12:11.321Z,11.9
2017-07-24T05:13:13.113Z,11.9
2017-07-24T05:14:14.777Z,11.9
2017-07-24T05:15:16.454Z,11.9
2017-07-24T05:16:18.117Z,11.8
2017-07-24T05:17:19.796Z,11.9
2017-07-24T05:18:21.468Z,11.9
2017-07-24T05:19:23.127Z,11.9
2017-07-24T05:20:24.792Z,11.9
2017-07-24T05:21:26.452Z,11.9
2017-07-24T05:22:28.116Z,11.9
2017-07-24T05:23:29.781Z,11.9
2017-07-24T05:24:31.450Z,11.9
2017-07-24T05:25:33.121Z,11.9
2017-07-24T05:26:34.789Z,12.0
2017-07-24T05:27:36.465Z,12.1
2017-07-24T05:28:38.129Z,12.1
2017-07-24T05:29:39.791Z,12.0
2017-07-24T05:30:41.455Z,12.1
2017-07-24T05:31:43.121Z,12.1
2017-07-24T05:32:44.786Z,12.1
2017-07-24T05:33:46.448Z,12.1
2017-07-24T05:34:48.102Z,12.2
2017-07-24T05:35:49.776Z,12.2
2017-07-24T05:36:51.670Z,12.2
2017-07-24T05:37:53.329Z,12.2
2017-07-24T05:38:55.004Z,12.2
2017-07-24T05:39:56.675Z,12.2
2017-07-24T05:40:58.341Z,12.3
2017-07-24T05:42:00.014Z,12.1
2017-07-24T05:43:01.673Z,12.1
2017-07-24T05:44:03.341Z,12.1
2017-07-24T05:45:05.003Z,12.2
2017-07-24T05:46:06.680Z,12.2
2017-07-24T05:47:08.345Z,12.2
2017-07-24T05:48:10.014Z,12.2
2017-07-24T05:49:11.673Z,12.4
2017-07-24T05:50:13.337Z,12.3
2017-07-24T05:51:14.955Z,12.2
2017-07-24T05:52:16.616Z,12.3
2017-07-24T05:53:18.276Z,12.3
2017-07-24T05:54:19.964Z,12.3
2017-07-24T05:55:21.602Z,12.2
2017-07-24T05:56:23.269Z,12.2
2017-07-24T05:57:24.934Z,12.2
2017-07-24T05:58:26.600Z,12.3
2017-07-24T05:59:28.270Z,12.2
2017-07-24T06:00:29.936Z,12.4
2017-07-24T06:01:31.612Z,12.3
2017-07-24T06:02:33.270Z,12.3
2017-07-24T06:03:34.936Z,12.4
2017-07-24T06:04:36.606Z,12.4
2017-07-24T06:05:38.282Z,12.3
2017-07-24T06:06:39.951Z,12.5
2017-07-24T06:07:41.614Z,12.4
2017-07-24T06:08:43.289Z,12.5
2017-07-24T06:09:44.947Z,12.4
2017-07-24T06:10:46.610Z,12.5
2017-07-24T06:11:48.283Z,12.4
2017-07-24T06:12:49.947Z,12.5
2017-07-24T06:13:51.612Z,12.5
2017-07-24T06:14:53.274Z,12.5
2017-07-24T06:15:54.940Z,12.5
2017-07-24T06:16:56.604Z,12.4
2017-07-24T06:17:58.269Z,12.5
2017-07-24T06:18:59.935Z,12.5
2017-07-24T06:20:01.600Z,12.5
2017-07-24T06:21:03.267Z,12.5
2017-07-24T06:22:04.942Z,12.5
2017-07-24T06:23:06.606Z,12.5
2017-07-24T06:24:08.270Z,12.4
2017-07-24T06:25:09.934Z,12.5
2017-07-24T06:26:11.610Z,12.5
2017-07-24T06:27:13.307Z,12.5
2017-07-24T06:28:15.024Z,12.5
2017-07-24T06:29:16.687Z,12.4
2017-07-24T06:30:18.354Z,12.4
2017-07-24T06:31:20.029Z,12.5
2017-07-24T06:32:21.695Z,12.5
2017-07-24T06:33:23.458Z,12.5
2017-07-24T06:34:25.130Z,12.5
2017-07-24T06:35:26.803Z,12.5
2017-07-24T06:36:28.471Z,12.6
2017-07-24T06:37:30.154Z,12.5
2017-07-24T06:38:31.799Z,12.5
2017-07-24T06:39:33.462Z,12.5
2017-07-24T06:40:35.130Z,12.5
2017-07-24T06:41:36.795Z,12.5
2017-07-24T06:42:38.461Z,12.5
2017-07-24T06:43:40.132Z,12.5
2017-07-24T06:44:41.836Z,12.5
2017-07-24T06:45:43.495Z,12.5
2017-07-24T06:46:45.212Z,12.5
2017-07-24T06:47:46.873Z,12.6
2017-07-24T06:48:48.605Z,12.5
2017-07-24T06:49:50.275Z,12.5
2017-07-24T06:50:51.944Z,12.5
2017-07-24T06:51:53.615Z,12.5
2017-07-24T06:52:55.281Z,12.5
2017-07-24T06:53:56.939Z,12.5
2017-07-24T06:54:58.602Z,12.5
2017-07-24T06:56:00.265Z,12.6
2017-07-24T06:57:01.933Z,12.6
2017-07-24T06:58:03.612Z,12.6
2017-07-24T06:59:05.280Z,12.5
2017-07-24T07:00:06.977Z,12.5
2017-07-24T07:01:08.638Z,12.6
2017-07-24T07:02:10.309Z,12.6
2017-07-24T07:03:12.041Z,12.6
2017-07-24T07:04:13.697Z,12.6
2017-07-24T07:05:15.445Z,12.6
2017-07-24T07:06:17.649Z,12.5
2017-07-24T07:07:19.994Z,12.5
2017-07-24T07:08:22.625Z,12.6
2017-07-24T07:09:24.766Z,12.5
2017-07-24T07:10:26.601Z,12.6
2017-07-24T07:11:28.299Z,12.5
2017-07-24T07:12:29.985Z,12.5
2017-07-24T07:13:31.861Z,12.5
2017-07-24T07:14:33.530Z,12.6
2017-07-24T07:15:35.208Z,12.5
2017-07-24T07:16:38.437Z,12.5
2017-07-24T07:17:40.107Z,12.5
2017-07-24T07:18:41.786Z,12.6
2017-07-24T07:19:43.464Z,12.6
2017-07-24T07:20:45.130Z,12.7
2017-07-24T07:21:46.794Z,12.6
2017-07-24T07:22:48.475Z,12.7
2017-07-24T07:23:50.136Z,12.6
2017-07-24T07:24:51.797Z,12.7
2017-07-24T07:25:53.468Z,12.6
2017-07-24T07:26:55.131Z,12.7
2017-07-24T07:27:56.877Z,12.7
2017-07-24T07:28:58.539Z,12.7
2017-07-24T07:30:00.203Z,12.7
2017-07-24T07:31:01.869Z,12.7
2017-07-24T07:32:03.535Z,12.6
2017-07-24T07:33:05.196Z,12.7
2017-07-24T07:34:06.880Z,12.6
2017-07-24T07:35:08.537Z,12.8
2017-07-24T07:36:10.202Z,12.8
2017-07-24T07:37:11.868Z,12.8
2017-07-24T07:38:13.534Z,12.8
2017-07-24T07:39:15.193Z,12.8
2017-07-24T07:40:16.858Z,12.7
2017-07-24T07:41:18.520Z,12.8
2017-07-24T07:42:20.209Z,12.8
2017-07-24T07:43:21.866Z,12.8
2017-07-24T07:44:23.536Z,12.8
2017-07-24T07:45:25.204Z,12.8
2017-07-24T07:46:26.874Z,12.9
2017-07-24T07:47:28.545Z,12.8
2017-07-24T07:48:30.207Z,12.8
2017-07-24T07:49:31.883Z,12.8
2017-07-24T07:50:33.546Z,12.9
2017-07-24T07:51:35.208Z,12.8
2017-07-24T07:52:36.874Z,12.8
2017-07-24T07:53:38.543Z,12.8
2017-07-24T07:54:40.207Z,12.9
2017-07-24T07:55:41.880Z,12.9
2017-07-24T07:56:43.546Z,12.8
2017-07-24T07:57:45.234Z,12.9
2017-07-24T07:58:46.875Z,12.9
2017-07-24T07:59:48.534Z,12.8
2017-07-24T08:00:50.206Z,12.9
2017-07-24T08:01:51.865Z,12.9
2017-07-24T08:02:53.715Z,12.9
2017-07-24T08:03:55.388Z,12.8
2017-07-24T08:04:57.049Z,12.8
2017-07-24T08:05:58.713Z,12.8
2017-07-24T08:07:00.378Z,12.7
2017-07-24T08:08:02.045Z,12.7
2017-07-24T08:09:03.774Z,12.7
2017-07-24T08:10:05.482Z,12.8
2017-07-24T08:11:07.156Z,12.8
2017-07-24T08:12:09.581Z,12.8
2017-07-24T08:13:11.255Z,12.7
2017-07-24T08:14:12.921Z,12.7
2017-07-24T08:15:14.585Z,12.6
2017-07-24T08:16:16.253Z,12.6
2017-07-24T08:17:17.921Z,12.6
2017-07-24T08:18:19.587Z,12.6
2017-07-24T08:19:21.253Z,12.6
2017-07-24T08:20:22.913Z,12.6
2017-07-24T08:21:24.579Z,12.6
2017-07-24T08:22:26.245Z,12.7
2017-07-24T08:23:27.970Z,12.8
2017-07-24T08:24:29.636Z,12.7
2017-07-24T08:25:31.305Z,12.7
2017-07-24T08:26:32.973Z,12.8
2017-07-24T08:27:34.643Z,12.7
2017-07-24T08:28:36.307Z,12.8
2017-07-24T08:29:37.976Z,13.0
2017-07-24T08:30:39.676Z,13.1
2017-07-24T08:31:41.328Z,13.0
2017-07-24T08:32:43.004Z,13.1
2017-07-24T08:33:44.663Z,13.1
2017-07-24T08:34:46.330Z,13.1
2017-07-24T08:35:47.996Z,13.0
2017-07-24T08:36:49.666Z,13.0
2017-07-24T08:37:51.342Z,13.1
2017-07-24T08:38:53.003Z,13.2
2017-07-24T08:39:54.667Z,13.1
2017-07-24T08:40:56.338Z,13.0
2017-07-24T08:41:57.998Z,13.0
2017-07-24T08:42:59.666Z,13.0
2017-07-24T08:44:01.339Z,13.0
2017-07-24T08:45:03.016Z,13.1
2017-07-24T08:46:04.701Z,13.0
2017-07-24T08:47:06.365Z,12.9
2017-07-24T08:48:08.042Z,13.0
2017-07-24T08:49:09.708Z,13.2
2017-07-24T08:50:11.372Z,13.1
2017-07-24T08:51:13.039Z,13.3
2017-07-24T08:52:14.709Z,13.2
2017-07-24T08:53:16.379Z,13.4
2017-07-24T08:54:18.075Z,13.6
2017-07-24T08:55:19.807Z,13.7
2017-07-24T08:56:21.474Z,13.8
2017-07-24T08:57:23.863Z,13.9
2017-07-24T08:58:25.557Z,14.0
2017-07-24T08:59:27.226Z,13.7
2017-07-24T09:00:28.981Z,14.1
2017-07-24T09:01:30.656Z,14.2
2017-07-24T09:02:32.334Z,14.3
2017-07-24T09:03:33.989Z,14.3
2017-07-24T09:04:35.649Z,14.3
2017-07-24T09:05:37.337Z,14.3
2017-07-24T09:06:39.000Z,14.2
2017-07-24T09:07:40.685Z,14.3
2017-07-24T09:08:42.346Z,14.3
2017-07-24T09:09:44.014Z,14.5
2017-07-24T09:10:45.679Z,14.5
2017-07-24T09:11:47.346Z,15.0
2017-07-24T09:12:49.044Z,15.1
2017-07-24T09:13:50.737Z,15.2
2017-07-24T09:14:52.408Z,14.9
2017-07-24T09:15:54.076Z,14.4
2017-07-24T09:16:55.749Z,14.4
2017-07-24T09:17:57.423Z,14.3
2017-07-24T09:18:59.114Z,14.3
2017-07-24T09:20:00.776Z,14.2
2017-07-24T09:21:02.469Z,14.3
2017-07-24T09:22:04.131Z,14.3
2017-07-24T09:23:05.805Z,14.4
2017-07-24T09:24:08.672Z,14.3
2017-07-24T09:25:10.342Z,14.5
2017-07-24T09:26:12.098Z,14.5
2017-07-24T09:27:13.796Z,14.5
2017-07-24T09:28:15.461Z,14.4
2017-07-24T09:29:17.133Z,14.3
2017-07-24T09:30:18.812Z,14.3
2017-07-24T09:31:20.537Z,14.4
2017-07-24T09:32:22.200Z,14.2
2017-07-24T09:33:23.874Z,14.2
2017-07-24T09:34:25.546Z,14.2
2017-07-24T09:35:27.215Z,14.1
2017-07-24T09:36:28.900Z,14.1
2017-07-24T09:37:30.569Z,14.0
2017-07-24T09:38:32.252Z,14.1
2017-07-24T09:39:42.779Z,14.0
2017-07-24T09:40:44.532Z,14.0
2017-07-24T09:41:46.209Z,14.1
2017-07-24T09:42:47.882Z,14.0
2017-07-24T09:43:49.549Z,14.0
2017-07-24T09:44:51.503Z,14.0
2017-07-24T09:45:53.988Z,14.0
2017-07-24T09:46:56.120Z,14.0
2017-07-24T09:48:00.057Z,14.0
2017-07-24T09:49:03.850Z,13.9
2017-07-24T09:50:05.285Z,13.9
2017-07-24T09:51:08.694Z,13.7
2017-07-24T09:52:10.447Z,13.8
2017-07-24T09:53:12.187Z,13.8
2017-07-24T09:54:14.195Z,13.7
2017-07-24T09:55:17.724Z,13.8
2017-07-24T09:56:20.733Z,13.7
2017-07-24T09:57:23.573Z,13.8
2017-07-24T09:58:25.389Z,13.7
2017-07-24T09:59:27.923Z,13.7
2017-07-24T10:00:32.053Z,14.0
2017-07-24T10:01:33.877Z,14.0
2017-07-24T10:02:36.238Z,14.2
2017-07-24T10:03:38.048Z,14.3
2017-07-24T10:04:39.765Z,14.2
2017-07-24T10:05:41.507Z,14.2
2017-07-24T10:06:43.220Z,14.2
2017-07-24T10:07:44.906Z,14.2
2017-07-24T10:08:46.588Z,14.2
2017-07-24T10:09:48.270Z,14.3
2017-07-24T10:10:49.951Z,14.5
2017-07-24T10:11:51.719Z,14.5
2017-07-24T10:12:53.489Z,14.4
2017-07-24T10:13:55.250Z,14.2
2017-07-24T10:14:56.997Z,14.3
2017-07-24T10:15:58.748Z,14.6
2017-07-24T10:17:00.484Z,14.7
2017-07-24T10:18:02.222Z,14.7
2017-07-24T10:19:03.950Z,14.6
2017-07-24T10:20:05.699Z,14.7
2017-07-24T10:21:07.431Z,14.9
2017-07-24T10:22:09.164Z,15.0
2017-07-24T10:23:10.912Z,15.0
2017-07-24T10:24:12.596Z,15.1
2017-07-24T10:25:14.323Z,15.2
2017-07-24T10:26:16.019Z,15.0
2017-07-24T10:27:17.714Z,15.4
2017-07-24T10:28:19.417Z,15.4
2017-07-24T10:29:21.097Z,15.5
2017-07-24T10:30:22.789Z,15.5
2017-07-24T10:31:24.726Z,15.5
2017-07-24T10:32:26.530Z,15.4
2017-07-24T10:33:28.308Z,15.4
2017-07-24T10:34:30.057Z,15.5
2017-07-24T10:35:31.756Z,15.8
2017-07-24T10:36:33.525Z,16.2
2017-07-24T10:37:35.278Z,16.2
2017-07-24T10:38:37.013Z,16.2
2017-07-24T10:39:39.689Z,16.1
2017-07-24T10:40:41.550Z,16.2
2017-07-24T10:41:43.254Z,16.0
2017-07-24T10:42:44.999Z,15.7
2017-07-24T10:43:46.724Z,16.0
2017-07-24T10:44:48.666Z,16.1
2017-07-24T10:45:50.407Z,16.1
2017-07-24T10:46:52.199Z,16.2
2017-07-24T10:47:53.927Z,16.1
2017-07-24T10:48:55.674Z,16.2
2017-07-24T10:49:57.368Z,16.1
2017-07-24T10:50:59.130Z,16.2
2017-07-24T10:52:00.868Z,16.2
2017-07-24T10:53:02.615Z,15.9
2017-07-24T10:54:04.391Z,16.0
2017-07-24T10:55:06.159Z,16.1
2017-07-24T10:56:07.930Z,16.2
2017-07-24T10:57:09.839Z,16.0
2017-07-24T10:58:11.584Z,16.1
2017-07-24T10:59:13.528Z,16.0
2017-07-24T11:00:15.318Z,16.3
2017-07-24T11:01:17.054Z,16.2
2017-07-24T11:02:18.955Z,16.4
2017-07-24T11:03:20.736Z,16.4
2017-07-24T11:04:22.512Z,16.8
2017-07-24T11:05:24.341Z,17.2
2017-07-24T11:06:26.046Z,17.1
2017-07-24T11:07:27.858Z,16.8
2017-07-24T11:08:29.655Z,16.9
2017-07-24T11:09:32.078Z,16.7
2017-07-24T11:10:33.786Z,16.6
2017-07-24T11:11:35.640Z,16.4
2017-07-24T11:12:37.551Z,16.4
2017-07-24T11:13:39.297Z,16.3
2017-07-24T11:14:41.149Z,16.4
2017-07-24T11:15:42.871Z,16.5
2017-07-24T11:16:44.798Z,16.4
2017-07-24T11:17:46.813Z,17.0
2017-07-24T11:18:48.949Z,17.0
2017-07-24T11:19:50.992Z,17.0
2017-07-24T11:20:53.154Z,17.0
2017-07-24T11:21:55.261Z,17.0
2017-07-24T11:22:57.420Z,16.4
2017-07-24T11:23:59.635Z,16.5
2017-07-24T11:25:01.878Z,16.5
2017-07-24T11:26:04.348Z,16.6
2017-07-24T11:27:06.552Z,16.8
2017-07-24T11:28:08.916Z,16.7
2017-07-24T11:29:10.859Z,16.8
2017-07-24T11:30:12.972Z,17.2
2017-07-24T11:31:15.033Z,17.2
2017-07-24T11:32:17.653Z,17.7
2017-07-24T11:33:19.900Z,17.7
2017-07-24T11:34:22.088Z,17.4
2017-07-24T11:35:23.890Z,17.2
2017-07-24T11:36:25.703Z,17.1
2017-07-24T11:37:27.399Z,17.0
2017-07-24T11:38:29.215Z,16.9
2017-07-24T11:39:31.003Z,16.5
2017-07-24T11:40:32.796Z,17.0
2017-07-24T11:41:34.581Z,17.2
2017-07-24T11:42:36.373Z,17.0
2017-07-24T11:43:38.150Z,17.2
2017-07-24T11:44:39.928Z,17.4
2017-07-24T11:45:41.660Z,17.0
2017-07-24T11:46:43.415Z,17.4
2017-07-24T11:47:51.996Z,16.8
2017-07-24T14:40:09.913Z,20.6
2017-07-24T14:41:11.600Z,20.4
2017-07-24T14:42:13.293Z,20.8
2017-07-24T14:43:14.978Z,20.9
2017-07-24T14:44:16.649Z,20.8
2017-07-24T14:45:18.329Z,20.6
2017-07-24T14:46:20.009Z,20.0
2017-07-24T14:47:21.694Z,20.1
2017-07-24T14:48:23.679Z,20.2
2017-07-24T14:49:25.354Z,19.8
2017-07-24T14:50:27.031Z,20.2
2017-07-24T14:51:28.771Z,20.2
2017-07-24T14:52:30.455Z,20.6
2017-07-24T14:53:32.129Z,20.4
2017-07-24T14:54:33.808Z,20.5
2017-07-24T14:55:35.474Z,19.7
2017-07-24T14:56:37.152Z,19.9
2017-07-24T14:57:38.835Z,20.0
2017-07-24T14:58:40.501Z,20.0
2017-07-24T14:59:42.176Z,19.6
2017-07-24T15:00:43.857Z,19.0
2017-07-24T15:01:45.546Z,18.6
2017-07-24T15:02:47.211Z,18.7
2017-07-24T15:03:48.899Z,18.6
2017-07-24T15:04:50.582Z,18.7
2017-07-24T15:05:52.244Z,19.0
2017-07-24T15:06:53.917Z,18.6
2017-07-24T15:07:55.677Z,19.1
2017-07-24T15:08:57.354Z,19.1
2017-07-24T15:09:59.030Z,18.8
2017-07-24T15:11:00.709Z,18.5
2017-07-24T15:12:02.405Z,18.1
2017-07-24T15:13:04.063Z,18.2
2017-07-24T15:14:05.756Z,18.3
2017-07-24T15:15:07.411Z,18.2
2017-07-24T15:16:09.159Z,18.6
2017-07-24T15:17:10.842Z,18.7
2017-07-24T15:18:12.510Z,18.7
2017-07-24T15:19:14.182Z,18.2
2017-07-24T15:20:15.872Z,17.7
2017-07-24T15:21:17.536Z,17.8
2017-07-24T15:22:19.209Z,18.0
2017-07-24T15:23:20.885Z,17.9
2017-07-24T15:24:22.562Z,18.2
2017-07-24T15:25:24.236Z,18.3
2017-07-24T15:26:25.905Z,18.4
2017-07-24T15:27:27.579Z,18.6
2017-07-24T15:28:29.247Z,18.6
2017-07-24T15:29:30.925Z,18.2
2017-07-24T15:30:32.600Z,18.0
2017-07-24T15:31:34.269Z,18.2
2017-07-24T15:32:35.944Z,18.2
2017-07-24T15:33:37.615Z,18.0
2017-07-24T15:34:39.282Z,17.9
2017-07-24T15:35:40.955Z,18.0
2017-07-24T15:36:42.661Z,18.1
2017-07-24T15:37:44.378Z,17.9
2017-07-24T15:38:46.029Z,17.8
2017-07-24T15:39:47.696Z,17.9
2017-07-24T15:40:49.365Z,18.0
2017-07-24T15:41:51.042Z,18.2
2017-07-24T15:42:52.774Z,18.4
2017-07-24T15:43:54.444Z,18.2
2017-07-24T15:44:56.120Z,18.1
2017-07-24T15:45:57.785Z,18.2
2017-07-24T15:46:59.454Z,18.3
2017-07-24T15:48:01.132Z,17.8
2017-07-24T15:49:02.802Z,17.7
2017-07-24T15:50:04.475Z,17.6
2017-07-24T15:51:06.152Z,17.6
2017-07-24T15:52:07.840Z,17.5
2017-07-24T15:53:09.506Z,17.5
2017-07-24T15:54:11.209Z,17.4
2017-07-24T15:55:12.871Z,17.4
2017-07-24T15:56:14.586Z,17.4
2017-07-24T15:57:16.254Z,17.3
2017-07-24T15:58:17.923Z,17.1
2017-07-24T15:59:19.750Z,16.9
2017-07-24T16:00:21.507Z,16.3
2017-07-24T16:01:23.208Z,16.3
2017-07-24T16:02:24.887Z,16.1
2017-07-24T16:03:26.573Z,15.8
2017-07-24T16:04:28.296Z,15.5
2017-07-24T16:05:29.965Z,15.4
2017-07-24T16:06:31.642Z,15.2
2017-07-24T16:07:33.306Z,15.0
2017-07-24T16:08:34.988Z,15.0
2017-07-24T16:09:37.117Z,15.0
2017-07-24T16:10:38.789Z,15.0
2017-07-24T16:11:40.471Z,14.8
2017-07-24T16:12:43.265Z,14.7
2017-07-24T16:13:44.941Z,14.7
2017-07-24T16:14:46.609Z,14.6
2017-07-24T16:15:48.282Z,14.7
2017-07-24T16:16:50.222Z,14.7
2017-07-24T16:17:52.145Z,14.7
2017-07-24T16:18:53.812Z,14.5
2017-07-24T16:19:55.494Z,14.6
2017-07-24T16:20:57.184Z,14.5
2017-07-24T16:21:58.852Z,14.5
2017-07-24T16:23:00.536Z,14.5
2017-07-24T16:24:02.198Z,14.5
2017-07-24T16:25:03.869Z,14.6
2017-07-24T16:26:05.670Z,14.7
2017-07-24T16:27:07.387Z,14.7
2017-07-24T16:28:09.238Z,14.9
2017-07-24T16:29:10.877Z,14.8
2017-07-24T16:30:12.582Z,14.9
2017-07-24T16:31:14.257Z,15.1
2017-07-24T16:32:15.930Z,15.4
2017-07-24T16:33:17.603Z,15.4